»·PEaware :: SCX51 KELP-KABQ

SCX51 :: KELP-KABQ

FLIGHT INFORMATION

Flight Status: Arrived
Operator:
Sun Country Airlines
More flights by this operator :: More flights under this callsign
Pilot: Dave P. (45)
Aircraft: BOEING 737-700
(B737)
More flights by this aircraft type
Origin: KELP El Paso Intl
United States
Destination: KABQ Albuquerque Intl Sunport
United States
More flights between these airports :: More routes between these airports
Route: +RUTER TCS J13 ABQ
File this flight plan on PilotEdge
Remarks: RMK / SIMBRIEF
Altitude:
(Current/Filed)
28,000ft
Speed:
(Current/Filed)
445kts
Departed: 09-Feb-20 09:40 AM
Arrived: 09-Feb-20 10:21 AM
Distance/Time
Traveled:
195nm/0:41
Distance/Time
To Go:
Arrived

Flight Plot

Page will automatically refresh every two minutes.

Flight plan parsing failed; only flown route is shown


Map Options




Map Legend


Flown Route
Filed Route
Departure Airport
Arrival Airport
Navaid (VOR, NDB)
Fix

Horizontal Profiles

Position Reports

Time Latitude Longitude Heading Altitude Ground
Speed
09-Feb-20 09:13 31.800085 -106.393283 262 3966ft 0kts
09-Feb-20 09:14 31.800085 -106.393283 262 3966ft 0kts
09-Feb-20 09:15 31.800085 -106.393283 262 3966ft 0kts
09-Feb-20 09:16 31.800085 -106.393283 262 3966ft 0kts
09-Feb-20 09:17 31.800085 -106.393283 262 3966ft 0kts
09-Feb-20 09:18 31.800085 -106.393283 262 3966ft 0kts
09-Feb-20 09:19 31.800085 -106.393283 262 3966ft 0kts
09-Feb-20 09:20 31.800085 -106.393283 262 3966ft 0kts
09-Feb-20 09:21 31.800085 -106.393283 262 3966ft 0kts
09-Feb-20 09:22 31.800085 -106.393283 262 3966ft 0kts
09-Feb-20 09:23 31.800085 -106.393283 262 3966ft 0kts
09-Feb-20 09:24 31.800085 -106.393283 262 3966ft 0kts
09-Feb-20 09:25 31.800085 -106.393283 262 3966ft 0kts
09-Feb-20 09:26 31.800085 -106.393283 262 3966ft 0kts
09-Feb-20 09:27 31.800085 -106.393283 262 3966ft 0kts
09-Feb-20 09:28 31.800135 -106.392717 273 3966ft 2kts
09-Feb-20 09:29 31.799909 -106.392382 348 3966ft 0kts
09-Feb-20 09:30 31.799909 -106.392382 348 3966ft 0kts
09-Feb-20 09:31 31.799910 -106.392382 348 3966ft 0kts
09-Feb-20 09:32 31.800301 -106.390993 89 3966ft 22kts
09-Feb-20 09:33 31.799977 -106.383734 92 3966ft 20kts
09-Feb-20 09:34 31.799720 -106.376926 92 3966ft 20kts
09-Feb-20 09:35 31.799437 -106.369520 92 3966ft 21kts
09-Feb-20 09:36 31.799370 -106.363862 27 3966ft 10kts
09-Feb-20 09:37 31.800137 -106.363781 2 3966ft 0kts
09-Feb-20 09:38 31.800864 -106.364656 273 3966ft 8kts
09-Feb-20 09:39 31.801830 -106.384237 273 4048ft 149kts
09-Feb-20 09:40 31.781681 -106.419081 171 6153ft 194kts
09-Feb-20 09:41 31.736428 -106.361732 128 7893ft 287kts
09-Feb-20 09:42 31.733483 -106.268941 50 10883ft 329kts
09-Feb-20 09:47 32.070087 -106.589701 303 17009ft 346kts
09-Feb-20 09:48 32.132531 -106.678946 302 19674ft 359kts
09-Feb-20 09:49 32.197341 -106.772983 303 22605ft 377kts
09-Feb-20 09:50 32.265332 -106.870910 307 25137ft 397kts
09-Feb-20 09:51 32.368666 -106.932209 336 27287ft 436kts
09-Feb-20 09:52 32.485910 -106.975522 335 28099ft 444kts
09-Feb-20 09:53 32.603586 -107.020188 335 28098ft 443kts
09-Feb-20 09:54 32.721052 -107.064766 335 28091ft 443kts
09-Feb-20 09:55 32.838523 -107.109649 335 28082ft 444kts
09-Feb-20 09:56 32.956083 -107.154721 335 28072ft 444kts
09-Feb-20 09:57 33.073569 -107.199777 334 28064ft 444kts
09-Feb-20 09:58 33.191555 -107.245350 334 28060ft 445kts
09-Feb-20 09:59 33.314322 -107.271901 0 28060ft 467kts
09-Feb-20 10:00 33.442550 -107.239777 7 28062ft 472kts
09-Feb-20 10:01 33.570806 -107.205861 6 28067ft 472kts
09-Feb-20 10:02 33.699219 -107.172473 6 28071ft 472kts
09-Feb-20 10:03 33.827389 -107.139048 6 27953ft 466kts
09-Feb-20 10:04 33.953955 -107.105922 6 24765ft 464kts
09-Feb-20 10:06 34.077275 -107.073544 6 23621ft 446kts
09-Feb-20 10:07 34.195096 -107.042508 6 21485ft 423kts
09-Feb-20 10:08 34.307908 -107.012724 6 19189ft 407kts
09-Feb-20 10:09 34.416162 -106.984056 6 17310ft 382kts
09-Feb-20 10:10 34.515633 -106.957646 6 15757ft 358kts
09-Feb-20 10:11 34.611027 -106.932260 6 15000ft 349kts
09-Feb-20 10:12 34.695278 -106.875260 39 14821ft 342kts
09-Feb-20 10:13 34.762731 -106.799119 39 13411ft 324kts
09-Feb-20 10:14 34.827724 -106.725869 39 11846ft 312kts
09-Feb-20 10:15 34.888601 -106.658738 39 11119ft 271kts
09-Feb-20 10:16 34.941099 -106.601818 39 9933ft 245kts
09-Feb-20 10:17 34.989547 -106.552483 39 8883ft 213kts
09-Feb-20 10:18 35.030663 -106.502208 53 7976ft 199kts
09-Feb-20 10:19 35.057012 -106.523344 236 6611ft 183kts
09-Feb-20 10:20 35.044047 -106.573155 268 5380ft 151kts
09-Feb-20 10:21 35.044179 -106.592551 271 5320ft 0kts
09-Feb-20 10:22 35.044613 -106.592313 79 5320ft 3kts
09-Feb-20 10:23 35.045739 -106.592528 271 5320ft 23kts
09-Feb-20 10:24 35.045771 -106.599251 269 5320ft 17kts
09-Feb-20 10:24 35.045779 -106.603861 269 5320ft 16kts
09-Feb-20 10:25 35.045785 -106.610532 272 5320ft 20kts
09-Feb-20 10:27 35.046870 -106.614291 319 5320ft 0kts
09-Feb-20 10:27 35.046870 -106.614291 319 5320ft 0kts
09-Feb-20 10:28 35.046870 -106.614291 319 5320ft 0kts
09-Feb-20 10:30 35.046870 -106.614291 319 5320ft 0kts
09-Feb-20 10:30 35.046870 -106.614291 319 5320ft 0kts
09-Feb-20 10:31 35.046870 -106.614291 319 5320ft 0kts

Navigation Log

Ident Type
Flight plan parsing failed, navigation log unavailable